TimeGMT,TemperatureF,Dew PointF,Humidity,Sea Level PressureIn,VisibilityMPH,Wind Direction,Wind SpeedMPH,Gust SpeedMPH,PrecipitationIn,Events,Conditions,WindDirDegrees,DateUTC
12:20 AM,50.0,46.4,87,30.57,6.2,West,6.9,-,N/A,,Mostly Cloudy,260,2013-01-04 00:20:00
12:50 AM,48.2,46.4,93,30.57,6.2,West,5.8,-,N/A,,Scattered Clouds,270,2013-01-04 00:50:00
1:20 AM,50.0,46.4,87,30.57,6.2,West,5.8,-,N/A,,Scattered Clouds,260,2013-01-04 01:20:00
1:50 AM,50.0,46.4,87,30.57,6.2,WSW,5.8,-,N/A,,Overcast,250,2013-01-04 01:50:00
2:20 AM,50.0,46.4,87,30.57,6.2,WSW,4.6,-,N/A,,Mostly Cloudy,250,2013-01-04 02:20:00
2:50 AM,50.0,46.4,87,30.57,6.2,West,5.8,-,N/A,,Mostly Cloudy,260,2013-01-04 02:50:00
3:20 AM,48.2,46.4,93,30.57,6.2,West,5.8,-,N/A,,Mostly Cloudy,260,2013-01-04 03:20:00
3:50 AM,48.2,46.4,93,30.57,6.2,Variable,3.5,-,N/A,,Mostly Cloudy,0,2013-01-04 03:50:00
4:20 AM,48.2,44.6,87,30.60,6.2,Variable,2.3,-,N/A,,Mostly Cloudy,0,2013-01-04 04:20:00
4:50 AM,48.2,44.6,87,30.60,6.2,West,5.8,-,N/A,,Mostly Cloudy,280,2013-01-04 04:50:00
5:20 AM,48.2,44.6,87,30.60,6.2,West,6.9,-,N/A,,Mostly Cloudy,280,2013-01-04 05:20:00
5:50 AM,48.2,44.6,87,30.60,6.2,West,8.1,-,N/A,,Mostly Cloudy,270,2013-01-04 05:50:00
6:20 AM,48.2,44.6,87,30.60,6.2,West,6.9,-,N/A,,Mostly Cloudy,270,2013-01-04 06:20:00
6:50 AM,48.2,44.6,87,30.60,6.2,West,5.8,-,N/A,,Mostly Cloudy,260,2013-01-04 06:50:00
7:20 AM,46.4,42.8,87,30.60,6.2,West,9.2,-,N/A,,Scattered Clouds,280,2013-01-04 07:20:00
7:50 AM,46.4,42.8,87,30.60,6.2,West,6.9,-,N/A,,Scattered Clouds,270,2013-01-04 07:50:00
8:20 AM,46.4,41.0,81,30.60,6.2,West,6.9,-,N/A,,Scattered Clouds,270,2013-01-04 08:20:00
8:50 AM,46.4,41.0,81,30.60,6.2,West,4.6,-,N/A,,Scattered Clouds,260,2013-01-04 08:50:00
9:20 AM,44.6,41.0,87,30.60,6.2,Variable,3.5,-,N/A,,Partly Cloudy,0,2013-01-04 09:20:00
9:50 AM,46.4,41.0,81,30.63,6.2,SW,4.6,-,N/A,,Scattered Clouds,230,2013-01-04 09:50:00
10:20 AM,46.4,42.8,87,30.63,6.2,West,5.8,-,N/A,,Scattered Clouds,270,2013-01-04 10:20:00
10:50 AM,48.2,42.8,82,30.63,6.2,West,6.9,-,N/A,,Scattered Clouds,270,2013-01-04 10:50:00
11:20 AM,48.2,44.6,87,30.63,6.2,West,8.1,-,N/A,,Scattered Clouds,280,2013-01-04 11:20:00
11:50 AM,50.0,44.6,82,30.63,6.2,West,6.9,-,N/A,,Mostly Cloudy,260,2013-01-04 11:50:00
12:20 PM,50.0,44.6,82,30.63,6.2,WSW,4.6,-,N/A,,Scattered Clouds,240,2013-01-04 12:20:00
12:50 PM,50.0,44.6,82,30.63,6.2,West,6.9,-,N/A,,Scattered Clouds,260,2013-01-04 12:50:00
1:20 PM,50.0,44.6,82,30.60,6.2,SW,5.8,-,N/A,,Scattered Clouds,230,2013-01-04 13:20:00
1:50 PM,50.0,44.6,82,30.60,6.2,WSW,5.8,-,N/A,,Mostly Cloudy,250,2013-01-04 13:50:00
2:20 PM,50.0,44.6,82,30.60,6.2,WSW,4.6,-,N/A,,Mostly Cloudy,240,2013-01-04 14:20:00
2:50 PM,50.0,46.4,87,30.60,6.2,SW,4.6,-,N/A,,Mostly Cloudy,230,2013-01-04 14:50:00
3:20 PM,50.0,46.4,87,30.60,6.2,Variable,3.5,-,N/A,,Mostly Cloudy,0,2013-01-04 15:20:00
3:50 PM,48.2,44.6,87,30.60,6.2,West,4.6,-,N/A,,Scattered Clouds,270,2013-01-04 15:50:00
4:20 PM,48.2,44.6,87,30.60,6.2,Variable,2.3,-,N/A,,Scattered Clouds,0,2013-01-04 16:20:00
4:50 PM,46.4,44.6,93,30.60,6.2,SW,3.5,-,N/A,,Mostly Cloudy,230,2013-01-04 16:50:00
5:20 PM,46.4,44.6,93,30.60,6.2,Variable,3.5,-,N/A,,Scattered Clouds,0,2013-01-04 17:20:00
5:50 PM,48.2,44.6,87,30.60,6.2,WSW,4.6,-,N/A,,Mostly Cloudy,240,2013-01-04 17:50:00
6:20 PM,48.2,44.6,87,30.60,6.2,Variable,3.5,-,N/A,,Scattered Clouds,0,2013-01-04 18:20:00
6:50 PM,46.4,44.6,93,30.60,6.2,West,4.6,-,N/A,,Scattered Clouds,280,2013-01-04 18:50:00
7:20 PM,46.4,44.6,93,30.60,6.2,West,6.9,-,N/A,,Mostly Cloudy,260,2013-01-04 19:20:00
7:50 PM,46.4,44.6,93,30.60,6.2,West,8.1,-,N/A,,Mostly Cloudy,280,2013-01-04 19:50:00
8:20 PM,46.4,44.6,93,30.60,6.2,West,8.1,-,N/A,,Mostly Cloudy,270,2013-01-04 20:20:00
8:50 PM,46.4,44.6,93,30.60,6.2,West,4.6,-,N/A,,Mostly Cloudy,280,2013-01-04 20:50:00
9:20 PM,46.4,44.6,93,30.60,6.2,West,6.9,-,N/A,,Mostly Cloudy,270,2013-01-04 21:20:00
9:50 PM,46.4,44.6,93,30.60,6.2,West,5.8,-,N/A,,Mostly Cloudy,280,2013-01-04 21:50:00
10:20 PM,46.4,44.6,93,30.57,6.2,Variable,3.5,-,N/A,,Mostly Cloudy,0,2013-01-04 22:20:00
10:50 PM,48.2,44.6,87,30.57,6.2,West,6.9,-,N/A,,Mostly Cloudy,260,2013-01-04 22:50:00
11:20 PM,48.2,44.6,87,30.57,6.2,Variable,3.5,-,N/A,,Mostly Cloudy,0,2013-01-04 23:20:00
11:50 PM,48.2,44.6,87,30.57,6.2,SW,4.6,-,N/A,,Mostly Cloudy,230,2013-01-04 23:50:00